Dauntless Aviation
Airports Europe Germany
EDSW

Altdorf-Wallburg

Altdorf-Wallburg, GERMANY

Airport Info
Suggest Updated Information for this Airport

Location

Latitude / Longitude: 48°16'11"N / 7°50'31"E
  48°16.188'N / 7°50.532'E
  48.2698 / 7.8422
Satellite photo at:
Airport distance calculator
From:
Weather Reports

METAR

EDTL
5.8nm NW
EDTL 281020Z 21013KT CAVOK 22/14 Q1002
LFST
18.2nm NW
LFST 281030Z AUTO 22012KT 190V250 9999 FEW038/// SCT049/// BKN062/// 23/14 Q1001 NOSIG
LFGA
22.2nm SW
LFGA 281030Z AUTO 24008KT 210V270 9999 BKN050/// OVC062/// 24/14 Q1001
EDSB
32.3nm N
EDSB 281020Z 21012KT 9999 VCSH SCT022 SCT060 23/16 Q1001

TAF

EDTL
5.8nm NW
TAF EDTL 280800Z 2809/2818 20010KT 9999 SCT035 TEMPO 2809/2818 SHRA SCT030CB PROB30 TEMPO 2812/2818 22015G25KT TSRA BKN025CB
LFST
18.2nm NW
TAF LFST 280500Z 2806/2906 20010KT 9999 FEW008 SCT030 TEMPO 2812/2818 VRB03KT TEMPO 2818/2904 4000 SHRA SCT030CB PROB30 TEMPO 2820/2822 2000 -TSRA
EDSB
32.3nm N
TAF EDSB 280500Z 2806/2906 21004KT 9999 SCT030 BECMG 2806/2808 21009KT TEMPO 2806/2809 22015G25KT PROB30 TEMPO 2820/2823 TSRA BKN030CB
Safelog

 

Dauntless Aviation

© 2007-2017 Dauntless Aviation, all rights reserved
Information provided via PilotNav comes from a variety of official and unofficial data sources. As errors are possible, do not use PilotNav for primary flight planning purposes. Verify any information that you receive via PilotNav with current and canonical charts and other official documents. The material in this database is subject to database copyrights held by Dauntless Aviation and may not be copied without the express permission of Dauntless Aviation - licenses for use of part of all of this data are available for purchase; enquire via the Dauntless Aviation helpdesk. A number of mechanisms and markers exist in the database to protect against and identify infringement / copyright. Automated queries against this website are stictly prohibited, and all activity is logged and analyzed.